METAR Data
IDs: Format: Raw Decoded Include TAF

Data at: 1822 UTC 16 Oct 2021

KE38 161815Z AUTO 10006KT 080V140 10SM CLR 17/M03 A3047 RMK AO2 T01711031
KE38 161755Z AUTO 08007KT 10SM CLR 17/M03 A3048 RMK AO2 T01691035 10172 20073
KE38 161735Z AUTO 07005KT 10SM CLR 17/M02 A3049 RMK AO2 T01661022
KE38 161715Z AUTO 09008KT 10SM CLR 15/M02 A3050 RMK AO2 T01521022
KE38 161655Z AUTO 12007KT 10SM CLR 15/M02 A3050 RMK AO2 T01511021
KE38 161635Z AUTO 10005KT 10SM CLR 15/M01 A3050 RMK AO2 T01541011
KE38 161615Z AUTO 07005KT 10SM CLR 14/M01 A3050 RMK AO2 T01431014
KE38 161555Z AUTO 06004KT 10SM CLR 14/M01 A3050 RMK AO2 T01361006
KE38 161535Z AUTO 11005KT 10SM CLR 14/M01 A3050 RMK AO2 T01361006
KE38 161515Z AUTO 10005KT 10SM CLR 13/M01 A3051 RMK AO2 T01261006
KE38 161455Z AUTO 11007KT 10SM CLR 12/00 A3051 RMK AO2 T01211003
KE38 161435Z AUTO 00000KT 10SM CLR 11/00 A3050 RMK AO2 T01051003
KE38 161415Z AUTO 00000KT 10SM CLR 09/00 A3050 RMK AO2 T00931004
KE38 161355Z AUTO 00000KT 10SM CLR 09/00 A3049 RMK AO2 T00861005
KE38 161335Z AUTO 00000KT 10SM CLR 08/00 A3049 RMK AO2 T00841005
KE38 161315Z AUTO 00000KT 10SM CLR 08/M01 A3048 RMK AO2 T00751008
KE38 161255Z AUTO 00000KT 10SM CLR 08/00 A3048 RMK AO2 T00771005
KE38 161235Z AUTO 00000KT 10SM CLR 08/00 A3047 RMK AO2 T00841003
KE38 161215Z AUTO 00000KT 10SM CLR 09/00 A3047 RMK AO2 T00860000
KE38 161155Z AUTO 00000KT 10SM CLR 08/00 A3047 RMK AO2 T00830000 10095 20062
KE38 161135Z AUTO 00000KT 10SM CLR 08/00 A3046 RMK AO2 T00831001
KE38 161115Z AUTO 11004KT 10SM CLR 08/M01 A3046 RMK AO2 T00821006
KE38 161055Z AUTO 00000KT 10SM CLR 07/M02 A3046 RMK AO2 T00731020
KE38 161035Z AUTO 27003KT 10SM CLR 07/M02 A3045 RMK AO2 T00711022
KE38 161015Z AUTO 00000KT 10SM CLR 07/M02 A3044 RMK AO2 T00701025
KE38 160955Z AUTO 00000KT 10SM CLR 07/M03 A3043 RMK AO2 T00661027
KE38 160935Z AUTO 00000KT 10SM CLR 07/M03 A3043 RMK AO2 T00701027
KE38 160915Z AUTO 01003KT 10SM CLR 08/M02 A3043 RMK AO2 T00771025
KE38 160855Z AUTO 36005KT 10SM CLR 07/M03 A3044 RMK AO2 T00721028
KE38 160835Z AUTO 34005KT 10SM CLR 07/M03 A3044 RMK AO2 T00681030
KE38 160815Z AUTO 34004KT 10SM CLR 07/M03 A3044 RMK AO2 T00671031
KE38 160755Z AUTO 34005KT 10SM CLR 07/M03 A3044 RMK AO2 T00691033
KE38 160735Z AUTO 00000KT 10SM CLR 09/M03 A3044 RMK AO2 T00871030
KE38 160715Z AUTO 00000KT 10SM CLR 09/M03 A3044 RMK AO2 T00921031
KE38 160655Z AUTO 00000KT 10SM CLR 09/M03 A3043 RMK AO2 T00891032
KE38 160635Z AUTO 00000KT 10SM CLR 08/M03 A3043 RMK AO2 T00841034
KE38 160615Z AUTO 34005KT 10SM CLR 09/M03 A3043 RMK AO2 T00941032
KE38 160555Z AUTO 34006KT 10SM CLR 10/M03 A3043 RMK AO2 T00951035 10182 20087 402090072
KE38 160535Z AUTO 34006KT 10SM CLR 09/M03 A3043 RMK AO2 T00941035
KE38 160515Z AUTO 33005KT 10SM CLR 09/M04 A3043 RMK AO2 T00881037
KE38 160455Z AUTO 34004KT 10SM CLR 09/M03 A3044 RMK AO2 T00921035
KE38 160435Z AUTO 30003KT 10SM CLR 10/M03 A3043 RMK AO2 T01011034
KE38 160415Z AUTO 00000KT 10SM CLR 12/M03 A3043 RMK AO2 T01151032
KE38 160355Z AUTO 00000KT 10SM CLR 11/M03 A3042 RMK AO2 T01121034
KE38 160335Z AUTO 00000KT 10SM CLR 11/M03 A3041 RMK AO2 T01131035
KE38 160315Z AUTO 00000KT 10SM CLR 11/M03 A3040 RMK AO2 T01101035
KE38 160255Z AUTO 00000KT 10SM CLR 11/M04 A3039 RMK AO2 T01061040
KE38 160235Z AUTO 34003KT 10SM CLR 11/M04 A3038 RMK AO2 T01111037
KE38 160215Z AUTO 34003KT 10SM CLR 11/M04 A3037 RMK AO2 T01141040
KE38 160155Z AUTO 34003KT 10SM CLR 12/M04 A3037 RMK AO2 T01201040
KE38 160135Z AUTO 04004KT 10SM CLR 15/M03 A3036 RMK AO2 T01521033
KE38 160115Z AUTO 04005KT 10SM CLR 16/M03 A3035 RMK AO2 T01601032
KE38 160055Z AUTO 04007KT 10SM CLR 17/M03 A3034 RMK AO2 T01651032
KE38 160035Z AUTO 05010KT 10SM CLR 17/M03 A3034 RMK AO2 T01711032
KE38 160015Z AUTO 04011KT 10SM CLR 18/M03 A3033 RMK AO2 T01761035
KE38 152355Z AUTO 05011KT 10SM CLR 18/M03 A3032 RMK AO2 T01831035 10209 20183
KE38 152335Z AUTO 04011KT 10SM CLR 19/M03 A3032 RMK AO2 T01881035
KE38 152315Z AUTO 04009G14KT 10SM CLR 19/M03 A3032 RMK AO2 T01921034
KE38 152255Z AUTO 05010G17KT 10SM SCT120 20/M03 A3031 RMK AO2 T01961035
KE38 152235Z AUTO 05013G17KT 10SM SCT120 20/M04 A3030 RMK AO2 T02001038
KE38 152215Z AUTO 05013G17KT 10SM CLR 20/M04 A3030 RMK AO2 T02011040
KE38 152155Z AUTO 04011G16KT 10SM CLR 21/M04 A3030 RMK AO2 T02061043
KE38 152135Z AUTO 04010G16KT 10SM CLR 21/M04 A3029 RMK AO2 T02071045
KE38 152115Z AUTO 04011G17KT 10SM CLR 21/M04 A3029 RMK AO2 T02051044
KE38 152055Z AUTO 06010G14KT 10SM CLR 21/M05 A3029 RMK AO2 T02071046
KE38 152035Z AUTO 03009G17KT 10SM CLR 21/M05 A3029 RMK AO2 T02071047
KE38 152015Z AUTO 06012G21KT 10SM CLR 21/M05 A3029 RMK AO2 T02081050
KE38 151955Z AUTO 04014G20KT 10SM CLR 20/M05 A3029 RMK AO2 T02031054
KE38 151935Z AUTO 05012G21KT 10SM CLR 20/M05 A3030 RMK AO2 T02031055
KE38 151915Z AUTO 06011G14KT 10SM CLR 20/M05 A3031 RMK AO2 T02041055
KE38 151855Z AUTO 05015G18KT 10SM CLR 20/M06 A3032 RMK AO2 T01991056
KE38 151835Z AUTO 03011G16KT 10SM CLR 20/M06 A3032 RMK AO2 T01951058
KE38 151815Z AUTO 04010G16KT 10SM CLR 20/M05 A3033 RMK AO2 T01971055
KE38 151755Z AUTO 05014G17KT 10SM CLR 20/M05 A3033 RMK AO2 T01961054 10196 20072
KE38 151735Z AUTO 01014G19KT 10SM CLR 19/M05 A3034 RMK AO2 T01901054
KE38 151715Z AUTO 04014G19KT 10SM CLR 19/M06 A3034 RMK AO2 T01851056
KE38 151655Z AUTO 01016G20KT 10SM CLR 19/M05 A3034 RMK AO2 T01881054
KE38 151635Z AUTO 02015G23KT 10SM CLR 18/M05 A3034 RMK AO2 T01841053
KE38 151615Z AUTO 01018G22KT 10SM CLR 18/M05 A3034 RMK AO2 T01811052
KE38 151555Z AUTO 02014G20KT 10SM CLR 18/M05 A3034 RMK AO2 T01781052
KE38 151535Z AUTO 02011G21KT 10SM CLR 18/M05 A3033 RMK AO2 T01761052
KE38 151515Z AUTO 02014G19KT 10SM CLR 17/M05 A3032 RMK AO2 T01741051
KE38 151455Z AUTO 02012G18KT 10SM CLR 17/M05 A3031 RMK AO2 T01711055
KE38 151435Z AUTO 03011G15KT 10SM CLR 17/M06 A3030 RMK AO2 T01671062
KE38 151415Z AUTO 04009KT 10SM CLR 16/M05 A3029 RMK AO2 T01551050
KE38 151355Z AUTO 07005KT 10SM CLR 12/M01 A3028 RMK AO2 T01201012
KE38 151335Z AUTO 08004KT 10SM CLR 10/00 A3026 RMK AO2 T00991002
KE38 151315Z AUTO 23003KT 10SM CLR 07/M01 A3024 RMK AO2 T00721007
KE38 151255Z AUTO 17004KT 10SM CLR 07/00 A3022 RMK AO2 T00731004
KE38 151235Z AUTO 00000KT 10SM CLR 08/00 A3021 RMK AO2 T00841001
KE38 151215Z AUTO 19004KT 7SM CLR 08/00 A3020 RMK AO2 T00810000
KE38 151155Z AUTO 19003KT 10SM CLR 08/00 A3019 RMK AO2 T00841005 10147 20084
KE38 151135Z AUTO 00000KT 10SM CLR 09/00 A3018 RMK AO2 T00850000
KE38 151115Z AUTO 22006KT 10SM CLR 09/00 A3017 RMK AO2 T00920001
KE38 151055Z AUTO 20007KT 10SM CLR 09/00 A3017 RMK AO2 T00920001
KE38 151035Z AUTO 19005KT 10SM CLR 09/00 A3016 RMK AO2 T00920001
KE38 151015Z AUTO 22005KT 10SM CLR 09/00 A3015 RMK AO2 T00910000
KE38 150955Z AUTO 23005KT 10SM CLR 10/00 A3014 RMK AO2 T01010000
KE38 150935Z AUTO 22005KT 10SM CLR 10/00 A3014 RMK AO2 T00980000
KE38 150915Z AUTO 23005KT 10SM CLR 10/00 A3014 RMK AO2 T00960000
KE38 150855Z AUTO 25006KT 10SM CLR 10/00 A3013 RMK AO2 T00970000
KE38 150835Z AUTO 25004KT 10SM CLR 10/00 A3013 RMK AO2 T01020001
KE38 150815Z AUTO 20006KT 10SM CLR 10/00 A3013 RMK AO2 T01040000
KE38 150755Z AUTO 22006KT 10SM CLR 11/00 A3013 RMK AO2 T01110001
KE38 150735Z AUTO 20005KT 10SM CLR 12/00 A3013 RMK AO2 T01190003
KE38 150715Z AUTO 19004KT 10SM CLR 12/00 A3013 RMK AO2 T01150000
KE38 150655Z AUTO 24003KT 10SM CLR 12/00 A3012 RMK AO2 T01231002
KE38 150635Z AUTO 06003KT 10SM CLR 14/00 A3012 RMK AO2 T01440001